Time;durP1;ratioP1;P1;durP2;ratioP2;P2;SDS_P1;SDS_P2;PMS_P1;PMS_P2;Temp;Humidity;BMP_temperature;BMP_pressure;BME280_temperature;BME280_humidity;BME280_pressure;Samples;Min_cycle;Max_cycle;Signal;HPM_P1;HPM_P2
2022/05/19 00:01:06;;;;;;;31.60;23.47;;;;;;;16.70;100.00;102028.75;4962055;28;20469;-80
2022/05/19 00:03:37;;;;;;;26.90;21.20;;;;;;;16.41;100.00;102005.63;4960668;28;20504;-77
2022/05/19 00:06:04;;;;;;;28.20;24.17;;;;;;;15.66;100.00;101904.00;4962239;28;20452;-78
2022/05/19 00:08:30;;;;;;;24.50;21.90;;;;;;;16.29;100.00;101974.84;4961126;28;20476;-78
2022/05/19 00:10:58;;;;;;;25.67;22.10;;;;;;;15.96;100.00;101896.34;4961504;28;20477;-79
2022/05/19 00:13:26;;;;;;;27.33;22.23;;;;;;;16.62;100.00;102022.72;4960716;28;20213;-78
2022/05/19 00:15:51;;;;;;;27.83;23.40;;;;;;;16.66;100.00;102026.66;4961669;28;20469;-78
2022/05/19 00:18:17;;;;;;;29.20;23.30;;;;;;;16.53;100.00;102024.78;4963529;28;20488;-79
2022/05/19 00:20:42;;;;;;;25.23;22.13;;;;;;;16.28;100.00;102009.16;4965717;28;20214;-78
2022/05/19 00:23:08;;;;;;;29.40;23.80;;;;;;;16.30;100.00;102002.72;4964761;28;20190;-79
2022/05/19 00:25:33;;;;;;;27.83;23.07;;;;;;;15.81;100.00;101919.03;4960012;28;20652;-79
2022/05/19 00:27:59;;;;;;;25.93;22.47;;;;;;;15.28;100.00;101885.66;4960232;28;20265;-80
2022/05/19 00:30:25;;;;;;;30.40;24.33;;;;;;;16.43;100.00;102027.94;4961242;28;20222;-78
2022/05/19 00:32:50;;;;;;;30.23;24.93;;;;;;;15.72;100.00;101944.59;4962696;28;20190;-79
2022/05/19 00:35:16;;;;;;;28.13;24.13;;;;;;;16.11;100.00;102015.19;4964312;28;20194;-79
2022/05/19 00:37:41;;;;;;;32.60;26.93;;;;;;;15.77;100.00;102007.03;4959285;28;20256;-79
2022/05/19 00:40:08;;;;;;;30.77;27.37;;;;;;;15.92;100.00;101974.41;4961395;28;20289;-78
2022/05/19 00:42:45;;;;;;;33.93;27.60;;;;;;;15.92;100.00;101989.81;4959490;28;20298;-79
2022/05/19 00:45:26;;;;;;;35.77;27.47;;;;;;;15.42;100.00;101946.81;4962917;28;20429;-79
2022/05/19 00:48:07;;;;;;;33.40;26.87;;;;;;;16.03;100.00;101990.03;4961964;28;20449;-80
2022/05/19 00:50:41;;;;;;;30.40;25.90;;;;;;;16.03;100.00;102025.19;4962660;28;20492;-80
2022/05/19 00:53:12;;;;;;;34.87;27.27;;;;;;;16.09;100.00;102028.97;4965748;28;20527;-80
2022/05/19 00:55:42;;;;;;;37.60;27.77;;;;;;;16.00;100.00;102025.63;4963696;28;20464;-80
2022/05/19 00:58:23;;;;;;;39.00;29.40;;;;;;;15.87;100.00;101997.69;4964856;28;20442;-81
2022/05/19 01:00:48;;;;;;;30.33;26.47;;;;;;;15.79;100.00;101955.44;4961596;28;20872;-81
2022/05/19 01:03:17;;;;;;;36.00;29.37;;;;;;;15.93;100.00;101997.69;4963505;28;20445;-80
2022/05/19 01:05:46;;;;;;;34.13;28.87;;;;;;;16.09;100.00;102025.41;4964023;28;20223;-81
2022/05/19 01:09:01;;;;;;;37.53;30.17;;;;;;;15.98;100.00;102008.75;4967064;28;20453;-80
2022/05/19 01:11:26;;;;;;;34.60;29.07;;;;;;;16.02;100.00;101977.50;4961777;28;20561;-79
2022/05/19 01:13:52;;;;;;;38.37;30.93;;;;;;;15.97;100.00;101974.63;4963328;28;20862;-79
2022/05/19 01:16:18;;;;;;;40.43;32.90;;;;;;;15.63;100.00;101915.25;4967900;28;20278;-79
2022/05/19 01:18:45;;;;;;;37.43;30.40;;;;;;;15.89;100.00;101984.81;4963036;28;20194;-79
2022/05/19 01:21:14;;;;;;;34.90;29.17;;;;;;;16.08;100.00;102023.75;4964287;28;20517;-79
2022/05/19 01:23:51;;;;;;;40.40;31.53;;;;;;;16.05;100.00;102011.44;4962592;28;20455;-79
2022/05/19 01:26:49;;;;;;;36.07;29.17;;;;;;;16.09;100.00;102031.66;4963900;28;20451;-80
2022/05/19 01:29:18;;;;;;;39.43;31.03;;;;;;;15.96;100.00;102016.22;4967909;28;20461;-82
2022/05/19 01:31:50;;;;;;;40.40;32.20;;;;;;;16.08;100.00;102011.03;4966217;28;20466;-82
2022/05/19 01:34:19;;;;;;;35.03;29.70;;;;;;;15.97;100.00;101988.16;4962524;28;20441;-80
2022/05/19 01:36:44;;;;;;;36.20;29.80;;;;;;;15.45;100.00;101942.84;4963073;28;20447;-80
2022/05/19 01:39:14;;;;;;;38.23;31.80;;;;;;;16.02;100.00;102007.28;4965734;28;20838;-80
2022/05/19 01:41:58;;;;;;;35.67;29.77;;;;;;;16.13;100.00;102005.00;4963845;28;20562;-80
2022/05/19 01:44:54;;;;;;;35.40;29.70;;;;;;;16.18;100.00;102018.75;4965692;28;20959;-80
2022/05/19 01:47:42;;;;;;;36.50;29.63;;;;;;;16.03;100.00;102008.97;4962846;28;20850;-81
2022/05/19 01:50:07;;;;;;;36.77;31.10;;;;;;;15.90;100.00;102002.69;4964300;28;20521;-82
2022/05/19 01:52:49;;;;;;;35.00;30.80;;;;;;;15.97;100.00;102011.66;4965827;28;20445;-82
2022/05/19 01:55:22;;;;;;;36.27;30.00;;;;;;;15.78;100.00;101972.72;4965387;28;20306;-82
2022/05/19 01:57:57;;;;;;;37.93;30.60;;;;;;;15.27;100.00;101925.34;4963475;28;20450;-83
2022/05/19 02:00:25;;;;;;;39.20;31.23;;;;;;;15.79;100.00;101987.88;4963161;28;20496;-82
2022/05/19 02:03:02;;;;;;;35.97;31.33;;;;;;;15.82;100.00;101993.75;4962480;28;20454;-82
2022/05/19 02:05:40;;;;;;;37.43;30.93;;;;;;;15.84;100.00;101993.53;4964360;28;20540;-82
2022/05/19 02:08:15;;;;;;;35.77;30.40;;;;;;;15.70;100.00;101997.25;4964659;28;20453;-82
2022/05/19 02:10:44;;;;;;;43.27;34.47;;;;;;;15.93;100.00;101986.88;4962440;28;20461;-82
2022/05/19 02:13:10;;;;;;;38.80;32.97;;;;;;;15.45;100.00;101946.41;4962780;28;21474;-81
2022/05/19 02:15:39;;;;;;;42.63;35.57;;;;;;;15.78;100.00;101995.19;4964352;28;20445;-81
2022/05/19 02:18:04;;;;;;;44.03;35.47;;;;;;;15.60;100.00;101967.88;4963917;28;20473;-82
2022/05/19 02:20:33;;;;;;;42.33;33.47;;;;;;;15.69;100.00;101984.75;4961209;28;20564;-81
2022/05/19 02:22:59;;;;;;;40.70;34.13;;;;;;;15.42;100.00;101948.66;4961016;28;20226;-81
2022/05/19 02:25:28;;;;;;;42.90;35.00;;;;;;;15.54;100.00;101983.03;4962716;28;20634;-80
2022/05/19 02:27:59;;;;;;;43.10;34.73;;;;;;;15.62;100.00;101984.69;4963849;28;20439;-80
2022/05/19 02:30:28;;;;;;;45.37;33.27;;;;;;;15.19;100.00;101917.44;4962399;28;20502;-81
2022/05/19 02:32:54;;;;;;;41.40;34.60;;;;;;;15.15;100.00;101873.75;4961128;28;20447;-82
2022/05/19 02:35:20;;;;;;;40.20;35.73;;;;;;;15.05;100.00;101891.41;4963445;28;20499;-82
2022/05/19 02:37:45;;;;;;;39.87;34.50;;;;;;;15.46;100.00;101942.66;4959043;28;20226;-81
2022/05/19 02:40:14;;;;;;;42.93;36.03;;;;;;;15.55;100.00;101929.78;4962648;28;20969;-81
2022/05/19 02:42:41;;;;;;;41.40;33.97;;;;;;;15.64;100.00;101970.97;4964082;28;20199;-81
2022/05/19 02:45:07;;;;;;;40.93;34.20;;;;;;;14.98;100.00;101858.94;4961651;28;20463;-79
2022/05/19 02:47:33;;;;;;;48.97;35.97;;;;;;;14.82;100.00;101835.00;4960517;28;20442;-81
2022/05/19 02:49:58;;;;;;;44.13;35.03;;;;;;;14.90;100.00;101869.94;4961227;28;20856;-78
2022/05/19 02:52:24;;;;;;;38.23;32.30;;;;;;;15.14;100.00;101904.50;4962149;28;20199;-79
2022/05/19 02:54:49;;;;;;;46.97;34.60;;;;;;;15.14;100.00;101892.88;4963755;28;20198;-78
2022/05/19 02:57:14;;;;;;;41.53;34.07;;;;;;;15.40;100.00;101954.28;4959455;28;20206;-78
2022/05/19 02:59:40;;;;;;;39.47;32.07;;;;;;;15.12;100.00;101890.38;4961552;28;20197;-79
2022/05/19 03:02:05;;;;;;;38.50;32.20;;;;;;;14.73;100.00;101852.44;4961460;28;20204;-80
2022/05/19 03:04:31;;;;;;;36.00;31.93;;;;;;;14.78;100.00;101845.38;4962282;28;20191;-79
2022/05/19 03:06:56;;;;;;;41.93;33.63;;;;;;;15.37;100.00;101942.00;4961049;28;20191;-80
2022/05/19 03:09:22;;;;;;;44.23;34.10;;;;;;;15.27;100.00;101922.63;4963674;28;20461;-80
2022/05/19 03:11:48;;;;;;;44.97;33.20;;;;;;;14.53;100.00;101792.94;4960263;28;20738;-79
2022/05/19 03:14:14;;;;;;;39.30;32.70;;;;;;;15.57;100.00;101943.94;4963103;28;20194;-80
2022/05/19 03:16:40;;;;;;;43.50;33.83;;;;;;;15.58;100.00;101935.59;4959651;28;20441;-80
2022/05/19 03:19:07;;;;;;;42.57;32.23;;;;;;;15.12;100.00;101900.34;4961796;28;20277;-80
2022/05/19 03:21:32;;;;;;;40.53;32.30;;;;;;;15.52;100.00;101930.19;4976547;23;20505;-74
2022/05/19 03:23:57;;;;;;;37.03;32.70;;;;;;;15.58;100.00;101908.56;4961198;28;20465;-73
2022/05/19 03:26:23;;;;;;;40.93;32.90;;;;;;;15.18;100.00;101847.34;4961513;28;20639;-74
2022/05/19 03:28:48;;;;;;;40.33;30.63;;;;;;;14.96;100.00;101844.81;4962672;28;20228;-73
2022/05/19 03:31:14;;;;;;;45.20;35.30;;;;;;;15.12;100.00;101860.63;4954123;28;20683;-73
2022/05/19 03:33:39;;;;;;;41.47;32.07;;;;;;;15.60;100.00;101911.91;4946520;28;20257;-73
2022/05/19 03:36:05;;;;;;;42.80;31.40;;;;;;;15.73;100.00;101926.50;4947166;28;20192;-73
2022/05/19 03:38:30;;;;;;;40.13;32.47;;;;;;;15.71;100.00;101905.09;4946589;28;20191;-72
2022/05/19 03:40:55;;;;;;;39.20;32.70;;;;;;;15.14;100.00;101836.97;4947914;28;20206;-73
2022/05/19 03:43:21;;;;;;;40.80;31.93;;;;;;;15.14;100.00;101825.31;4947204;28;20195;-73
2022/05/19 03:45:47;;;;;;;39.03;30.10;;;;;;;15.04;100.00;101804.13;4947596;28;20618;-73
2022/05/19 03:48:13;;;;;;;37.40;31.53;;;;;;;15.75;100.00;101908.19;4946554;28;20446;-73
2022/05/19 03:50:43;;;;;;;40.50;32.20;;;;;;;15.36;100.00;101861.09;4945936;28;20219;-73
2022/05/19 03:53:09;;;;;;;46.80;32.40;;;;;;;15.56;100.00;101899.84;4947566;28;20462;-73
2022/05/19 03:55:35;;;;;;;40.43;32.20;;;;;;;15.55;100.00;101908.16;4948273;28;21824;-73
2022/05/19 03:58:00;;;;;;;43.80;31.50;;;;;;;15.86;100.00;101910.28;4946967;28;20257;-73
2022/05/19 04:00:25;;;;;;;40.30;32.50;;;;;;;15.79;100.00;101901.31;4946683;28;20256;-73
2022/05/19 04:02:51;;;;;;;40.70;31.50;;;;;;;15.32;100.00;101865.25;4946589;28;20209;-73
2022/05/19 04:05:16;;;;;;;44.07;33.40;;;;;;;15.83;100.00;101924.25;4945200;28;20206;-73
2022/05/19 04:07:43;;;;;;;40.10;34.00;;;;;;;15.81;100.00;101924.44;4948541;28;20209;-72
2022/05/19 04:10:11;;;;;;;40.67;31.77;;;;;;;15.70;100.00;101906.09;4946730;28;20207;-72
2022/05/19 04:12:36;;;;;;;42.17;34.60;;;;;;;15.73;100.00;101904.88;4946681;28;20455;-72
2022/05/19 04:15:04;;;;;;;39.77;33.53;;;;;;;15.48;100.00;101872.16;4947274;28;20461;-71
2022/05/19 04:17:33;;;;;;;43.70;31.63;;;;;;;15.42;100.00;101854.91;4945181;28;20202;-73
2022/05/19 04:20:00;;;;;;;37.40;33.10;;;;;;;15.84;100.00;101898.00;4945182;28;20445;-73
2022/05/19 04:22:25;;;;;;;41.40;33.63;;;;;;;15.17;100.00;101827.63;4948170;28;20844;-72
2022/05/19 04:24:50;;;;;;;38.13;30.67;;;;;;;15.70;100.00;101895.28;4946803;28;20461;-71
2022/05/19 04:27:16;;;;;;;43.70;34.10;;;;;;;15.56;100.00;101867.41;4950179;28;20581;-72
2022/05/19 04:29:41;;;;;;;46.10;32.00;;;;;;;15.58;100.00;101864.47;4947739;28;20357;-74
2022/05/19 04:32:07;;;;;;;39.90;34.10;;;;;;;15.69;100.00;101884.69;4950931;28;20254;-74
2022/05/19 04:34:33;;;;;;;39.30;33.00;;;;;;;15.63;100.00;101863.84;4948104;28;20187;-72
2022/05/19 04:36:58;;;;;;;40.30;34.43;;;;;;;15.37;100.00;101801.44;4950709;28;21043;-73
2022/05/19 04:39:23;;;;;;;40.90;32.30;;;;;;;16.05;100.00;101916.72;4951992;28;20191;-72
2022/05/19 04:41:49;;;;;;;41.00;33.67;;;;;;;15.49;100.00;101838.66;4951353;28;20215;-72
2022/05/19 04:44:17;;;;;;;43.17;34.50;;;;;;;15.85;100.00;101899.66;4953783;28;20601;-72
2022/05/19 04:46:42;;;;;;;49.97;39.00;;;;;;;15.81;100.00;101918.19;4953114;28;20183;-72
2022/05/19 04:49:08;;;;;;;42.60;33.90;;;;;;;16.10;100.00;101900.69;4953427;28;20470;-72
2022/05/19 04:51:33;;;;;;;51.20;39.20;;;;;;;15.93;100.00;101891.34;4953854;28;20857;-72
2022/05/19 04:53:58;;;;;;;50.63;39.63;;;;;;;16.10;100.00;101908.81;4954463;28;20187;-72
2022/05/19 04:56:24;;;;;;;50.17;38.27;;;;;;;16.17;100.00;101906.97;4954312;28;20198;-73
2022/05/19 04:58:49;;;;;;;46.30;35.00;;;;;;;15.45;100.00;101761.69;4953320;28;20191;-73
2022/05/19 05:01:15;;;;;;;50.80;37.50;;;;;;;16.06;100.00;101806.63;4953420;28;20664;-73
2022/05/19 05:03:40;;;;;;;49.40;37.80;;;;;;;16.09;100.00;101834.09;4954338;28;20190;-74
2022/05/19 05:06:05;;;;;;;45.70;36.17;;;;;;;16.19;100.00;101844.47;4953939;28;20802;-73
2022/05/19 05:08:31;;;;;;;55.40;37.00;;;;;;;15.15;100.00;101657.56;4953558;28;20559;-73
2022/05/19 05:10:56;;;;;;;47.93;36.53;;;;;;;16.59;100.00;101877.69;4954001;28;20206;-73
2022/05/19 05:13:21;;;;;;;47.07;36.27;;;;;;;16.60;100.00;101878.53;4954046;28;20184;-73
2022/05/19 05:15:47;;;;;;;43.63;35.83;;;;;;;16.39;100.00;101807.34;4954148;28;20197;-74
2022/05/19 05:18:12;;;;;;;46.83;35.13;;;;;;;16.70;100.00;101862.66;4953614;28;20246;-73
2022/05/19 05:20:41;;;;;;;42.50;33.93;;;;;;;16.93;100.00;101865.72;4953371;28;20215;-73
2022/05/19 05:23:06;;;;;;;44.83;34.37;;;;;;;16.84;100.00;101847.22;4953326;28;20187;-73
2022/05/19 05:25:32;;;;;;;48.50;36.97;;;;;;;16.91;100.00;101856.97;4951256;28;20593;-73
2022/05/19 05:27:58;;;;;;;45.43;36.47;;;;;;;16.84;100.00;101863.47;4953020;28;20183;-73
2022/05/19 05:30:25;;;;;;;41.90;34.03;;;;;;;16.88;100.00;101851.16;4952807;28;20741;-73
2022/05/19 05:32:51;;;;;;;42.20;34.73;;;;;;;16.95;100.00;101849.22;4953043;28;20430;-73
2022/05/19 05:35:17;;;;;;;39.23;34.37;;;;;;;16.93;100.00;101854.03;4953790;28;20508;-74
2022/05/19 05:37:42;;;;;;;46.87;35.87;;;;;;;16.98;100.00;101865.06;4952798;28;20544;-73
2022/05/19 05:40:10;;;;;;;51.40;37.73;;;;;;;17.17;100.00;101883.09;4953070;28;20175;-73
2022/05/19 05:42:37;;;;;;;43.90;33.63;;;;;;;17.25;100.00;101863.03;4953244;28;20205;-73
2022/05/19 05:45:03;;;;;;;38.13;32.23;;;;;;;16.73;100.00;101749.28;4952632;29;20437;-73
2022/05/19 05:47:28;;;;;;;45.93;37.50;;;;;;;17.22;100.00;101876.19;4952813;28;20988;-73
2022/05/19 05:49:54;;;;;;;51.47;40.30;;;;;;;16.92;100.00;101847.81;4952661;28;20478;-73
2022/05/19 05:52:20;;;;;;;47.30;38.73;;;;;;;16.54;100.00;101781.88;4952558;28;20664;-73
2022/05/19 05:54:45;;;;;;;48.23;37.43;;;;;;;16.87;100.00;101834.06;4952382;28;20442;-73
2022/05/19 05:57:11;;;;;;;40.40;33.40;;;;;;;17.22;100.00;101849.09;4953589;28;20194;-73
2022/05/19 05:59:36;;;;;;;52.10;38.83;;;;;;;17.12;100.00;101841.41;4952219;28;20190;-73
2022/05/19 06:02:02;;;;;;;48.83;36.93;;;;;;;17.58;100.00;101897.22;4952947;28;20217;-73
2022/05/19 06:04:27;;;;;;;38.37;33.40;;;;;;;17.84;100.00;101886.19;4952547;28;20570;-73
2022/05/19 06:06:53;;;;;;;43.10;36.50;;;;;;;17.78;100.00;101880.81;4951865;28;20647;-73
2022/05/19 06:09:18;;;;;;;44.63;35.47;;;;;;;17.87;100.00;101928.34;4952944;28;20563;-73
2022/05/19 06:11:44;;;;;;;46.23;36.40;;;;;;;17.92;100.00;101923.09;4952484;28;20281;-73
2022/05/19 06:14:10;;;;;;;41.63;33.30;;;;;;;17.99;100.00;101918.47;4953233;28;20193;-73
2022/05/19 06:16:36;;;;;;;42.60;34.90;;;;;;;17.87;100.00;101874.06;4951601;28;20655;-73
2022/05/19 06:19:01;;;;;;;41.50;34.20;;;;;;;17.95;100.00;101891.97;4953088;28;20477;-73
2022/05/19 06:21:27;;;;;;;41.33;30.93;;;;;;;18.38;100.00;101940.84;4952056;28;20227;-73
2022/05/19 06:23:52;;;;;;;39.60;31.80;;;;;;;18.07;100.00;101876.59;4952725;28;20269;-73
2022/05/19 06:26:18;;;;;;;36.30;30.07;;;;;;;18.38;100.00;101935.41;4952840;28;20651;-73
2022/05/19 06:28:43;;;;;;;37.10;31.30;;;;;;;17.92;100.00;101870.69;4952106;28;20218;-73
2022/05/19 06:31:08;;;;;;;40.60;33.53;;;;;;;18.33;100.00;101934.44;4952696;28;20258;-73
2022/05/19 06:33:36;;;;;;;34.10;29.30;;;;;;;18.00;100.00;101846.00;4951507;28;20191;-74
2022/05/19 06:36:03;;;;;;;34.53;29.27;;;;;;;18.33;100.00;101866.53;4951529;28;20601;-74
2022/05/19 06:38:29;;;;;;;36.07;29.33;;;;;;;18.55;100.00;101886.78;4950744;28;20509;-73
2022/05/19 06:42:00;;;;;;;29.80;26.57;;;;;;;18.59;100.00;101862.69;4952330;28;20830;-73
2022/05/19 06:43:40;;;;;;;29.93;23.97;;;;;;;18.31;100.00;101796.13;4951281;28;20202;-73
2022/05/19 06:46:05;;;;;;;33.10;27.97;;;;;;;18.88;100.00;101885.56;4951059;28;20935;-73
2022/05/19 06:48:34;;;;;;;28.50;25.03;;;;;;;19.02;100.00;101845.44;4951882;28;20274;-73
2022/05/19 06:51:00;;;;;;;29.90;24.27;;;;;;;18.95;100.00;101794.72;4951031;28;20214;-73
2022/05/19 06:53:26;;;;;;;28.70;25.43;;;;;;;19.51;100.00;101870.66;4951004;28;20445;-72
2022/05/19 06:55:51;;;;;;;33.80;27.00;;;;;;;19.56;100.00;101884.41;4951656;28;20431;-73
2022/05/19 06:58:16;;;;;;;31.47;23.67;;;;;;;19.54;100.00;101865.56;4951340;28;20191;-73
2022/05/19 07:00:42;;;;;;;31.80;25.37;;;;;;;19.32;100.00;101839.97;4949532;28;20226;-73
2022/05/19 07:03:07;;;;;;;29.23;23.73;;;;;;;19.04;100.00;101775.34;4946730;28;20253;-73
2022/05/19 07:05:39;;;;;;;26.80;21.33;;;;;;;19.71;100.00;101881.25;4950223;28;20239;-73
2022/05/19 07:08:06;;;;;;;27.80;24.57;;;;;;;19.53;100.00;101877.53;4949305;28;20199;-73
2022/05/19 07:10:32;;;;;;;29.07;22.97;;;;;;;19.43;100.00;101840.00;4949361;28;20502;-73
2022/05/19 07:12:59;;;;;;;31.07;25.40;;;;;;;19.41;100.00;101814.06;4950342;28;20555;-74
2022/05/19 07:15:27;;;;;;;30.20;22.20;;;;;;;19.63;100.00;101828.78;4951399;28;20273;-74
2022/05/19 07:17:53;;;;;;;21.87;18.63;;;;;;;19.99;100.00;101859.63;4949813;28;20453;-73
2022/05/19 07:23:05;;;;;;;20.73;16.33;;;;;;;20.19;100.00;101836.63;4952171;28;20417;-74
2022/05/19 07:25:31;;;;;;;20.27;17.00;;;;;;;20.17;100.00;101836.06;4951070;28;20593;-73
2022/05/19 07:27:56;;;;;;;23.00;18.17;;;;;;;19.75;100.00;101788.00;4950844;28;20916;-73
2022/05/19 07:30:22;;;;;;;17.33;15.50;;;;;;;20.00;100.00;101811.44;4950840;28;20234;-73
2022/05/19 07:32:47;;;;;;;17.57;14.23;;;;;;;19.94;100.00;101796.06;4950251;28;20191;-73
2022/05/19 07:35:14;;;;;;;22.50;17.67;;;;;;;19.81;100.00;101762.53;4949993;28;20187;-73
2022/05/19 07:37:40;;;;;;;20.03;15.50;;;;;;;20.27;100.00;101818.00;4950479;28;20183;-71
2022/05/19 07:40:07;;;;;;;23.70;18.67;;;;;;;19.63;100.00;101752.59;4951520;28;20892;-73
2022/05/19 07:42:32;;;;;;;21.67;16.90;;;;;;;20.08;100.00;101820.06;4950004;28;20209;-73
2022/05/19 07:44:58;;;;;;;16.00;14.30;;;;;;;19.97;100.00;101820.06;4948772;28;20454;-73
2022/05/19 07:47:24;;;;;;;17.80;15.33;;;;;;;19.93;100.00;101817.00;4950638;28;20187;-74
2022/05/19 07:49:54;;;;;;;15.40;13.70;;;;;;;19.81;100.00;101786.22;4949900;28;20218;-73
2022/05/19 07:52:20;;;;;;;20.77;16.13;;;;;;;20.04;100.00;101865.16;4949741;28;20464;-73
2022/05/19 07:54:46;;;;;;;18.77;16.80;;;;;;;19.56;100.00;101805.50;4948897;28;20446;-73
2022/05/19 07:57:11;;;;;;;25.43;20.40;;;;;;;19.70;100.00;101857.81;4950000;28;20435;-73
2022/05/19 07:59:37;;;;;;;20.90;17.40;;;;;;;19.52;100.00;101835.03;4950345;28;20330;-73
2022/05/19 08:02:02;;;;;;;24.73;18.20;;;;;;;19.75;100.00;101868.81;4960838;28;20215;-74
2022/05/19 08:04:28;;;;;;;23.77;19.00;;;;;;;19.74;100.00;101881.63;4953309;28;20195;-73
2022/05/19 08:06:54;;;;;;;26.93;23.33;;;;;;;19.29;100.00;101827.66;4953988;28;20222;-73
2022/05/19 08:12:05;;;;;;;17.10;15.37;;;;;;;19.79;100.00;101881.75;4955004;28;20221;-73
2022/05/19 08:17:17;;;;;;;20.73;17.37;;;;;;;19.49;100.00;101848.28;4954176;28;20426;-73
2022/05/19 08:19:42;;;;;;;24.40;18.67;;;;;;;19.61;100.00;101865.47;4954358;28;20434;-72
2022/05/19 08:22:08;;;;;;;21.63;16.97;;;;;;;19.11;100.00;101795.09;4954207;28;20462;-73
2022/05/19 08:24:35;;;;;;;23.70;18.70;;;;;;;19.51;100.00;101863.31;4953962;28;20194;-73
2022/05/19 08:27:00;;;;;;;24.43;18.03;;;;;;;19.38;100.00;101852.63;4954119;28;20191;-73
2022/05/19 08:29:27;;;;;;;22.73;18.37;;;;;;;19.56;100.00;101887.94;4953921;28;20470;-73
2022/05/19 08:31:53;;;;;;;21.90;18.10;;;;;;;19.67;100.00;101908.09;4953972;28;20211;-73
2022/05/19 08:34:19;;;;;;;19.77;17.67;;;;;;;19.63;100.00;101915.88;4952330;28;20985;-73
2022/05/19 08:36:47;;;;;;;25.90;21.40;;;;;;;19.15;100.00;101881.44;4953882;28;20431;-73
2022/05/19 08:39:13;;;;;;;27.93;22.80;;;;;;;19.31;100.00;101947.94;4952154;28;20261;-73
2022/05/19 08:41:47;;;;;;;26.17;19.13;;;;;;;19.18;100.00;101945.44;4960100;28;20633;-73
2022/05/19 08:44:31;;;;;;;23.07;18.80;;;;;;;19.11;100.00;101940.03;4954490;28;20793;-73
2022/05/19 08:47:00;;;;;;;20.07;17.73;;;;;;;19.20;100.00;101957.72;4951638;28;20911;-73
2022/05/19 08:49:34;;;;;;;25.37;19.83;;;;;;;19.11;100.00;101939.22;4954372;28;20460;-73
2022/05/19 08:52:14;;;;;;;22.97;18.83;;;;;;;19.09;100.00;101944.06;4953426;28;20445;-73
2022/05/19 08:54:43;;;;;;;24.73;17.97;;;;;;;19.10;100.00;101946.56;4953038;28;20411;-73
2022/05/19 08:57:18;;;;;;;20.30;16.80;;;;;;;19.14;100.00;101949.66;4953040;28;20461;-73
2022/05/19 08:59:57;;;;;;;24.67;17.50;;;;;;;18.91;100.00;101918.53;4953230;28;20954;-74
2022/05/19 09:02:42;;;;;;;24.57;19.93;;;;;;;19.13;100.00;101937.13;4952130;28;20435;-75
2022/05/19 09:05:20;;;;;;;25.83;19.33;;;;;;;19.14;100.00;101976.84;4954016;28;20422;-74
2022/05/19 09:07:57;;;;;;;27.10;23.17;;;;;;;19.26;100.00;101931.47;4966789;28;20889;-74
2022/05/19 09:10:51;;;;;;;24.30;19.60;;;;;;;19.40;100.00;101923.97;4952276;28;20454;-74
2022/05/19 09:13:29;;;;;;;22.00;19.40;;;;;;;19.42;100.00;101908.25;4952330;28;20422;-74
2022/05/19 09:15:55;;;;;;;23.83;21.23;;;;;;;19.43;100.00;101912.63;4951967;28;20512;-74
2022/05/19 09:18:29;;;;;;;26.17;19.10;;;;;;;18.86;100.00;101789.81;4953106;28;21089;-74
2022/05/19 09:20:56;;;;;;;25.53;20.40;;;;;;;19.59;100.00;101930.19;4969306;23;20729;-85
2022/05/19 09:23:23;;;;;;;23.00;18.90;;;;;;;19.73;100.00;101920.78;4985815;28;20429;-83
2022/05/19 09:26:01;;;;;;;23.67;19.50;;;;;;;19.68;100.00;101914.41;4985484;28;20469;-83
2022/05/19 09:28:26;;;;;;;25.40;20.90;;;;;;;19.26;100.00;101854.50;4985967;28;20517;-84
2022/05/19 09:30:56;;;;;;;21.67;18.60;;;;;;;19.77;100.00;101902.91;4986291;28;20607;-84
2022/05/19 09:33:47;;;;;;;24.03;17.60;;;;;;;19.94;100.00;101891.34;4985570;28;20278;-84
2022/05/19 09:36:14;;;;;;;21.23;18.37;;;;;;;19.97;100.00;101880.81;4988669;28;20492;-85
2022/05/19 09:38:50;;;;;;;22.87;18.80;;;;;;;20.00;100.00;101872.16;4986412;28;20476;-85
2022/05/19 09:41:32;;;;;;;22.57;20.17;;;;;;;20.07;100.00;101881.03;4988993;28;20551;-86
2022/05/19 09:43:59;;;;;;;25.07;19.63;;;;;;;20.16;100.00;101881.50;4988554;28;20471;-85
2022/05/19 09:46:39;;;;;;;23.90;20.10;;;;;;;20.23;100.00;101874.06;4992691;28;20443;-85
2022/05/19 09:49:07;;;;;;;23.87;19.20;;;;;;;20.11;100.00;101828.84;4986094;28;20581;-85
2022/05/19 09:51:42;;;;;;;25.87;20.33;;;;;;;20.45;100.00;101896.06;4986591;28;20854;-85
2022/05/19 09:54:12;;;;;;;24.10;21.50;;;;;;;19.63;100.00;101815.19;4998903;28;20440;-85
2022/05/19 09:56:45;;;;;;;29.13;18.27;;;;;;;20.34;100.00;101883.28;4986155;28;20425;-84
2022/05/19 09:59:15;;;;;;;24.53;19.23;;;;;;;19.88;100.00;101786.13;4986351;28;20793;-84
2022/05/19 10:01:45;;;;;;;25.90;18.20;;;;;;;20.73;100.00;101902.69;4987793;28;20540;-85
2022/05/19 10:04:26;;;;;;;19.23;14.93;;;;;;;20.75;100.00;101895.09;4985652;28;20464;-86
2022/05/19 10:07:06;;;;;;;20.70;17.20;;;;;;;20.92;100.00;101884.25;4984882;28;20429;-85
2022/05/19 10:09:42;;;;;;;26.50;16.57;;;;;;;20.98;100.00;101864.19;4984984;28;20488;-84
2022/05/19 10:12:10;;;;;;;18.10;14.83;;;;;;;21.28;100.00;101891.19;4984192;28;20448;-84
2022/05/19 10:14:36;;;;;;;24.47;15.80;;;;;;;20.89;100.00;101844.66;4984395;28;20418;-85
2022/05/19 10:17:13;;;;;;;20.90;17.73;;;;;;;20.57;100.00;101833.41;4984714;28;20425;-85
2022/05/19 10:20:22;;;;;;;22.80;16.33;;;;;;;21.07;100.00;101872.81;4984185;28;20431;-85
2022/05/19 10:22:53;;;;;;;18.20;15.83;;;;;;;21.27;100.00;101881.38;4986395;28;20460;-84
2022/05/19 10:25:40;;;;;;;20.47;16.60;;;;;;;21.20;100.00;101865.16;4985834;28;20460;-84
2022/05/19 10:31:18;;;;;;;19.87;15.60;;;;;;;21.22;100.00;101846.63;4985182;28;20814;-84
2022/05/19 10:34:10;;;;;;;24.20;17.23;;;;;;;21.22;100.00;101835.72;4983826;28;20505;-84
2022/05/19 10:36:54;;;;;;;18.03;16.10;;;;;;;21.34;100.00;101832.91;4986795;28;20424;-84
2022/05/19 10:39:22;;;;;;;21.37;18.03;;;;;;;21.29;100.00;101830.13;4986879;28;20435;-84
2022/05/19 10:42:27;;;;;;;18.70;16.33;;;;;;;21.37;100.00;101817.97;4985969;28;20576;-84
2022/05/19 10:45:11;;;;;;;26.67;19.60;;;;;;;21.41;100.00;101838.25;4982428;28;20433;-84
2022/05/19 10:47:42;;;;;;;21.57;19.23;;;;;;;21.36;100.00;101825.34;4984020;28;20425;-84
2022/05/19 10:50:20;;;;;;;18.47;15.80;;;;;;;21.57;100.00;101782.00;4982677;28;20465;-84
2022/05/19 10:53:07;;;;;;;23.50;19.03;;;;;;;21.68;100.00;101805.66;4983260;28;20478;-84
2022/05/19 10:55:38;;;;;;;20.97;16.80;;;;;;;21.93;100.00;101801.63;4985278;28;20420;-83
2022/05/19 10:58:31;;;;;;;23.17;17.47;;;;;;;21.85;100.00;101798.28;4982850;28;20433;-84
2022/05/19 11:01:27;;;;;;;21.37;18.50;;;;;;;22.03;100.00;101791.69;4983628;28;20525;-85
2022/05/19 11:04:00;;;;;;;17.67;14.43;;;;;;;22.16;100.00;101779.59;4989271;28;20424;-84
2022/05/19 11:06:46;;;;;;;16.90;14.10;;;;;;;22.35;100.00;101758.25;4983358;28;20425;-85
2022/05/19 11:09:21;;;;;;;12.97;11.03;;;;;;;22.33;100.00;101754.94;4985250;28;20457;-84
2022/05/19 11:12:13;;;;;;;9.60;7.93;;;;;;;22.22;100.00;101712.19;4982970;28;20530;-83
2022/05/19 11:15:09;;;;;;;12.00;9.60;;;;;;;22.41;100.00;101731.78;4985906;28;20457;-84
2022/05/19 11:18:01;;;;;;;8.00;7.20;;;;;;;22.52;100.00;101717.16;4982777;28;20837;-84
2022/05/19 11:20:48;;;;;;;7.60;6.03;;;;;;;22.60;100.00;101718.63;4983350;28;20472;-83
2022/05/19 11:23:51;;;;;;;6.00;4.60;;;;;;;22.68;100.00;101729.06;4997368;28;20843;-82
2022/05/19 11:26:31;;;;;;;7.03;6.20;;;;;;;22.23;100.00;101727.50;4984192;28;20421;-82